Weather at Beteta Airfield

Public forecast

Using degrees Celsius for public forecast. Weather courtesy of forecast.io.

Closest aviation weather report (METAR) to Beteta Airfield

Closest report is Teruel Airport, 40.1 nm (74.2 km) ESE. Retrieved 2021/09/24 17:30 UTC (16 seconds ago):

LETL 241730Z AUTO 18010KT 150V210 8000 NSC 21/14 Q1019

Closest aviation forecast (TAF) to Beteta Airfield

Closest forecast is Teruel Airport, 40.1 nm (74.2 km) ESE. Retrieved 2021/09/24 12:00 UTC (6 hours ago):

TAF LETL 241100Z 2412/2512 VRB04KT 9999 FEW030 TX27/2412Z TN13/2506Z TEMPO 2412/2416 BKN014 BECMG 2413/2415 13010KT BECMG 2418/2420 VRB05KT